createdAt,value
2023-04-29T00:02:17.483Z,9.56
2023-04-29T00:07:22.395Z,9.58
2023-04-29T00:12:25.554Z,9.56
2023-04-29T00:17:28.803Z,9.54
2023-04-29T00:22:33.320Z,9.47
2023-04-29T00:27:38.510Z,9.56
2023-04-29T00:32:41.742Z,9.53
2023-04-29T00:37:46.121Z,9.50
2023-04-29T00:42:49.392Z,9.53
2023-04-29T00:47:52.684Z,9.57
2023-04-29T00:52:57.173Z,9.60
2023-04-29T00:58:00.825Z,9.61
2023-04-29T01:03:04.512Z,9.60
2023-04-29T01:08:22.653Z,9.59
2023-04-29T01:13:32.085Z,9.61
2023-04-29T01:18:43.188Z,9.53
2023-04-29T01:23:53.759Z,9.53
2023-04-29T01:29:05.477Z,9.52
2023-04-29T01:34:14.438Z,9.49
2023-04-29T01:39:26.046Z,9.47
2023-04-29T01:44:42.510Z,9.42
2023-04-29T01:49:47.471Z,9.38
2023-04-29T01:54:52.090Z,9.38
2023-04-29T01:59:55.846Z,9.14
2023-04-29T02:05:18.649Z,9.29
2023-04-29T02:10:31.031Z,9.23
2023-04-29T02:15:50.993Z,9.31
2023-04-29T02:21:01.636Z,9.32
2023-04-29T02:26:07.085Z,9.31
2023-04-29T02:31:10.117Z,9.27
2023-04-29T02:36:13.504Z,9.31
2023-04-29T02:41:19.568Z,9.33
2023-04-29T02:46:24.470Z,9.37
2023-04-29T02:51:29.085Z,9.42
2023-04-29T02:56:33.641Z,9.38
2023-04-29T03:01:38.783Z,9.37
2023-04-29T03:06:41.890Z,9.39
2023-04-29T03:11:48.548Z,9.41
2023-04-29T03:16:52.272Z,9.47
2023-04-29T03:21:55.277Z,9.39
2023-04-29T03:27:01.253Z,9.44
2023-04-29T03:32:04.626Z,9.33
2023-04-29T03:37:09.302Z,9.44
2023-04-29T03:42:16.887Z,9.41
2023-04-29T03:47:20.752Z,9.38
2023-04-29T03:52:24.758Z,9.33
2023-04-29T03:57:34.845Z,9.37
2023-04-29T04:02:38.085Z,9.38
2023-04-29T04:07:41.143Z,9.41
2023-04-29T04:13:05.754Z,9.31
2023-04-29T04:18:09.332Z,9.37
2023-04-29T04:23:12.435Z,9.40
2023-04-29T04:28:16.965Z,9.41
2023-04-29T04:33:34.305Z,9.42
2023-04-29T04:38:37.416Z,9.45
2023-04-29T04:43:46.316Z,9.41
2023-04-29T04:48:54.576Z,9.44
2023-04-29T04:53:58.225Z,9.50
2023-04-29T04:59:06.428Z,9.47
2023-04-29T05:04:12.199Z,9.37
2023-04-29T05:09:15.284Z,9.48
2023-04-29T05:14:20.078Z,9.55
2023-04-29T05:19:23.040Z,9.58
2023-04-29T05:24:26.215Z,9.60
2023-04-29T05:29:30.853Z,9.50
2023-04-29T05:34:36.608Z,9.48
2023-04-29T05:39:39.750Z,9.36
2023-04-29T05:44:50.110Z,9.25
2023-04-29T05:49:53.450Z,9.26
2023-04-29T05:54:56.864Z,9.26
2023-04-29T06:00:01.763Z,9.28
2023-04-29T06:05:05.676Z,9.56
2023-04-29T06:10:17.438Z,9.71
2023-04-29T06:15:23.359Z,9.77
2023-04-29T06:20:27.274Z,10.13
2023-04-29T06:25:30.228Z,10.38
2023-04-29T06:30:34.613Z,10.36
2023-04-29T06:35:41.360Z,10.54
2023-04-29T06:41:13.820Z,10.64
2023-04-29T06:46:39.300Z,10.54
2023-04-29T06:51:53.141Z,10.68
2023-04-29T06:56:56.372Z,10.69
2023-04-29T07:02:00.711Z,10.68
2023-04-29T07:07:03.837Z,10.87
2023-04-29T07:12:07.149Z,10.81
2023-04-29T07:17:14.057Z,10.73
2023-04-29T07:22:17.949Z,11.13
2023-04-29T07:27:21.128Z,11.77
2023-04-29T07:32:26.249Z,12.18
2023-04-29T07:37:29.342Z,12.36
2023-04-29T07:42:32.624Z,12.61
2023-04-29T07:47:37.340Z,13.02
2023-04-29T07:52:40.433Z,13.16
2023-04-29T07:57:43.472Z,13.47
2023-04-29T08:02:48.117Z,13.47
2023-04-29T08:07:53.041Z,13.00
2023-04-29T08:12:59.376Z,12.77
2023-04-29T08:18:03.976Z,12.58
2023-04-29T08:23:08.064Z,12.57
2023-04-29T08:28:11.233Z,12.49
2023-04-29T08:33:15.858Z,12.70
2023-04-29T08:38:21.514Z,12.79
2023-04-29T08:43:25.105Z,12.86
2023-04-29T08:48:31.615Z,13.10
2023-04-29T08:53:34.993Z,13.35
2023-04-29T08:58:42.417Z,13.42
2023-04-29T09:03:56.083Z,13.73
2023-04-29T09:09:01.011Z,14.16
2023-04-29T09:14:04.546Z,14.14
2023-04-29T09:19:09.069Z,13.93
2023-04-29T09:24:12.798Z,13.75
2023-04-29T09:29:16.359Z,14.38
2023-04-29T09:34:32.695Z,14.81
2023-04-29T09:39:41.009Z,15.07
2023-04-29T09:44:45.315Z,15.02
2023-04-29T09:49:50.087Z,14.96
2023-04-29T09:54:53.439Z,14.74
2023-04-29T09:59:56.765Z,14.43
2023-04-29T10:05:01.547Z,15.02
2023-04-29T10:10:08.520Z,15.40
2023-04-29T10:15:22.018Z,15.41
2023-04-29T10:20:27.264Z,15.77
2023-04-29T10:25:30.830Z,16.32
2023-04-29T10:30:34.941Z,16.26
2023-04-29T10:35:39.625Z,16.28
2023-04-29T10:40:47.270Z,16.06
2023-04-29T10:45:50.278Z,16.31
2023-04-29T10:51:06.955Z,16.99
2023-04-29T10:56:11.863Z,17.91
2023-04-29T11:01:16.265Z,16.96
2023-04-29T11:06:20.896Z,16.41
2023-04-29T11:11:28.195Z,17.00
2023-04-29T11:16:31.561Z,16.57
2023-04-29T11:21:37.345Z,16.22
2023-04-29T11:26:40.380Z,17.39
2023-04-29T11:31:43.452Z,17.29
2023-04-29T11:36:48.803Z,16.45
2023-04-29T11:41:52.854Z,16.57
2023-04-29T11:47:03.206Z,16.75
2023-04-29T11:52:09.068Z,16.86
2023-04-29T11:57:12.375Z,17.06
2023-04-29T12:02:15.678Z,17.88
2023-04-29T12:07:20.493Z,18.67
2023-04-29T12:12:23.753Z,18.52
2023-04-29T12:17:26.828Z,18.08
2023-04-29T12:22:34.576Z,19.21
2023-04-29T12:27:41.508Z,19.14
2023-04-29T12:32:46.116Z,18.49
2023-04-29T12:37:51.848Z,18.43
2023-04-29T12:42:55.394Z,18.88
2023-04-29T12:47:59.449Z,19.40
2023-04-29T12:53:05.101Z,19.12
2023-04-29T12:58:09.466Z,18.49
2023-04-29T13:03:13.084Z,18.85
2023-04-29T13:08:18.315Z,19.39
2023-04-29T13:13:21.741Z,19.56
2023-04-29T13:18:24.748Z,19.78
2023-04-29T13:23:29.115Z,20.18
2023-04-29T13:28:32.527Z,19.86
2023-04-29T13:33:38.243Z,19.61
2023-04-29T13:38:45.787Z,19.94
2023-04-29T13:43:51.064Z,19.23
2023-04-29T13:49:21.156Z,18.82
2023-04-29T14:04:33.494Z,18.85
2023-04-29T14:09:38.340Z,19.07
2023-04-29T14:14:41.433Z,19.20
2023-04-29T14:19:44.687Z,18.99
2023-04-29T14:24:49.425Z,18.88
2023-04-29T14:29:52.396Z,18.51
2023-04-29T14:34:58.587Z,18.33
2023-04-29T14:40:03.922Z,18.51
2023-04-29T14:45:08.965Z,18.77
2023-04-29T14:50:12.030Z,19.06
2023-04-29T14:55:16.891Z,18.99
2023-04-29T15:00:19.943Z,19.01
2023-04-29T15:05:23.022Z,19.03
2023-04-29T15:10:27.601Z,19.04
2023-04-29T15:15:31.284Z,19.10
2023-04-29T15:20:34.250Z,19.10
2023-04-29T15:25:38.732Z,18.99
2023-04-29T15:30:41.737Z,19.07
2023-04-29T15:35:44.741Z,19.05
2023-04-29T15:40:49.108Z,18.99
2023-04-29T15:45:52.178Z,18.95
2023-04-29T15:50:55.315Z,18.94
2023-04-29T15:56:00.142Z,18.78
2023-04-29T16:01:04.727Z,18.85
2023-04-29T16:06:08.304Z,18.76
2023-04-29T16:11:12.704Z,18.75
2023-04-29T16:16:15.868Z,18.54
2023-04-29T16:21:18.999Z,18.52
2023-04-29T16:26:23.808Z,19.76
2023-04-29T16:31:28.393Z,21.30
2023-04-29T16:36:32.928Z,21.72
2023-04-29T16:41:37.430Z,21.97
2023-04-29T16:46:40.580Z,22.10
2023-04-29T16:51:43.739Z,21.47
2023-04-29T16:56:50.205Z,20.23
2023-04-29T17:01:55.267Z,19.25
2023-04-29T17:06:58.451Z,18.93
2023-04-29T17:12:03.804Z,18.59
2023-04-29T17:17:06.889Z,18.19
2023-04-29T17:22:10.053Z,18.04
2023-04-29T17:27:14.766Z,17.81
2023-04-29T17:32:17.782Z,17.70
2023-04-29T17:37:25.031Z,17.51
2023-04-29T17:42:29.533Z,17.36
2023-04-29T17:47:32.776Z,17.06
2023-04-29T17:52:36.372Z,16.82
2023-04-29T17:57:42.236Z,16.76
2023-04-29T18:02:45.308Z,16.51
2023-04-29T18:07:48.633Z,16.34
2023-04-29T18:12:53.533Z,16.18
2023-04-29T18:17:56.552Z,15.96
2023-04-29T18:22:59.505Z,15.62
2023-04-29T18:28:23.021Z,15.36
2023-04-29T18:33:27.009Z,15.11
2023-04-29T18:38:30.161Z,14.68
2023-04-29T18:43:34.609Z,14.49
2023-04-29T18:48:39.021Z,14.33
2023-04-29T18:53:42.111Z,14.06
2023-04-29T18:58:46.645Z,13.76
2023-04-29T19:03:49.733Z,13.49
2023-04-29T19:08:52.984Z,13.24
2023-04-29T19:13:57.378Z,13.11
2023-04-29T19:19:00.441Z,12.91
2023-04-29T19:24:03.325Z,12.73
2023-04-29T19:29:07.742Z,12.43
2023-04-29T19:34:10.772Z,12.29
2023-04-29T19:39:14.797Z,12.12
2023-04-29T19:44:19.264Z,11.96
2023-04-29T19:49:22.277Z,11.78
2023-04-29T19:54:25.208Z,11.64
2023-04-29T19:59:29.644Z,11.48
2023-04-29T20:04:32.630Z,11.40
2023-04-29T20:09:36.090Z,11.30
2023-04-29T20:14:40.484Z,11.15
2023-04-29T20:19:43.426Z,11.03
2023-04-29T20:24:46.694Z,10.94
2023-04-29T20:29:53.671Z,10.85
2023-04-29T20:34:56.922Z,10.74
2023-04-29T20:40:00.229Z,10.58
2023-04-29T20:45:05.736Z,10.44
2023-04-29T20:50:09.893Z,10.35
2023-04-29T20:55:13.013Z,10.23
2023-04-29T21:00:17.876Z,10.09
2023-04-29T21:05:21.021Z,10.00
2023-04-29T21:10:24.565Z,9.97
2023-04-29T21:15:30.485Z,9.88
2023-04-29T21:20:33.613Z,9.81
2023-04-29T21:25:36.696Z,9.74
2023-04-29T21:30:41.317Z,9.66
2023-04-29T21:35:48.339Z,9.55
2023-04-29T21:40:54.400Z,9.47
2023-04-29T21:45:58.988Z,9.40
2023-04-29T21:51:05.097Z,9.37
2023-04-29T21:56:08.872Z,9.29
2023-04-29T22:01:26.708Z,9.26
2023-04-29T22:06:30.126Z,9.00
2023-04-29T22:11:33.294Z,9.16
2023-04-29T22:16:38.271Z,9.07
2023-04-29T22:21:43.029Z,9.04
2023-04-29T22:26:46.515Z,8.94
2023-04-29T22:31:53.521Z,8.95
2023-04-29T22:36:57.757Z,8.73
2023-04-29T22:42:01.130Z,8.78
2023-04-29T22:47:05.685Z,8.64
2023-04-29T22:52:08.720Z,8.67
2023-04-29T22:57:12.372Z,8.63
2023-04-29T23:02:16.958Z,8.62
2023-04-29T23:07:20.019Z,8.60
2023-04-29T23:12:23.086Z,8.61
2023-04-29T23:17:27.713Z,8.51
2023-04-29T23:22:30.766Z,8.50
2023-04-29T23:27:33.745Z,8.45
2023-04-29T23:32:38.146Z,8.34
2023-04-29T23:37:41.191Z,8.29
2023-04-29T23:42:44.124Z,8.31
2023-04-29T23:47:49.649Z,8.13
2023-04-29T23:52:52.690Z,8.15
2023-04-29T23:57:57.115Z,8.13
